Terminal Aerodrome Forecast
Issued by NWS Mobile, AL

Home | Current Version | Previous Version | Text Only | Print | Product List | Glossary On
Versions: 1 2 3 4 5 6 7 8 9 10 11 12 13 14 15 16 17 18 19 20 21 22 23 24 25 26 27 28 29
000
FTUS44 KMOB 272300
TAFMOB
TAF
KMOB 272320Z 2800/2824 21004KT P6SM VCSH FEW050 SCT070 BKN110
     FM280200 00000KT P6SM SCT110 BKN250
     FM282100 16006KT P6SM SCT050=

USA.gov is the U.S. government's official web portal to all federal, state and local government web resources and services.